Time;durP1;ratioP1;P1;durP2;ratioP2;P2;SDS_P1;SDS_P2;PMS_P1;PMS_P2;Temp;Humidity;BMP_temperature;BMP_pressure;BME280_temperature;BME280_humidity;BME280_pressure;Samples;Min_cycle;Max_cycle;Signal;HPM_P1;HPM_P2
2021/08/15 00:00:22;;;;;;;;;;;;;;;15.47;81.93;100104.38;5053556;28;1894;-61
2021/08/15 00:02:49;;;;;;;;;;;;;;;15.45;81.90;100099.25;5053807;28;817;-61
2021/08/15 00:05:16;;;;;;;;;;;;;;;15.42;81.86;100099.31;5053566;28;810;-61
2021/08/15 00:07:42;;;;;;;;;;;;;;;15.40;81.87;100087.81;5053450;28;798;-61
2021/08/15 00:10:10;;;;;;;;;;;;;;;15.44;81.74;100096.88;5053429;28;877;-61
2021/08/15 00:12:37;;;;;;;;;;;;;;;15.48;81.72;100092.81;5053325;28;838;-61
2021/08/15 00:15:06;;;;;;;;;;;;;;;15.49;81.44;100088.00;5052132;28;963;-61
2021/08/15 00:17:32;;;;;;;;;;;;;;;15.48;81.30;100094.81;5053305;28;857;-61
2021/08/15 00:19:59;;;;;;;;;;;;;;;15.44;81.10;100091.31;5053069;28;1980;-61
2021/08/15 00:22:24;;;;;;;;;;;;;;;15.38;81.09;100088.22;5053196;28;830;-62
2021/08/15 00:24:51;;;;;;;;;;;;;;;15.37;81.26;100086.66;5053089;28;854;-61
2021/08/15 00:27:17;;;;;;;;;;;;;;;15.35;81.04;100083.53;5053023;28;829;-61
2021/08/15 00:29:44;;;;;;;;;;;;;;;15.33;81.24;100083.16;5053025;28;826;-61
2021/08/15 00:32:12;;;;;;;;;;;;;;;15.29;81.09;100079.66;5052995;28;861;-61
2021/08/15 00:34:38;;;;;;;;;;;;;;;15.23;81.32;100079.38;5052896;28;885;-61
2021/08/15 00:37:05;;;;;;;;;;;;;;;15.19;81.61;100078.69;5052875;28;869;-61
2021/08/15 00:39:31;;;;;;;;;;;;;;;15.19;81.53;100080.66;5052818;28;1959;-61
2021/08/15 00:41:58;;;;;;;;;;;;;;;15.17;81.69;100080.28;5053002;28;960;-61
2021/08/15 00:44:25;;;;;;;;;;;;;;;15.11;81.63;100074.47;5051500;28;933;-60
2021/08/15 00:46:52;;;;;;;;;;;;;;;15.05;81.51;100074.16;5052703;28;814;-61
2021/08/15 00:49:19;;;;;;;;;;;;;;;15.00;81.64;100066.31;5052676;28;815;-61
2021/08/15 00:51:45;;;;;;;;;;;;;;;14.97;81.89;100066.38;5052560;28;830;-61
2021/08/15 00:54:12;;;;;;;;;;;;;;;14.97;82.01;100069.16;5052566;28;878;-61
2021/08/15 00:56:39;;;;;;;;;;;;;;;14.97;81.75;100064.38;5052484;28;818;-61
2021/08/15 00:59:06;;;;;;;;;;;;;;;14.97;82.14;100064.38;5051896;28;962;-61
2021/08/15 01:01:34;;;;;;;;;;;;;;;14.97;81.94;100055.22;5051041;28;2193;-61
2021/08/15 01:04:03;;;;;;;;;;;;;;;14.94;81.97;100062.44;5052358;28;798;-61
2021/08/15 01:06:33;;;;;;;;;;;;;;;14.88;81.79;100062.13;5052475;28;811;-61
2021/08/15 01:09:00;;;;;;;;;;;;;;;14.84;82.18;100057.84;5052169;28;834;-60
2021/08/15 01:11:27;;;;;;;;;;;;;;;14.80;82.15;100057.91;5052300;28;869;-61
2021/08/15 01:13:54;;;;;;;;;;;;;;;14.79;82.07;100056.34;5052065;28;867;-61
2021/08/15 01:16:20;;;;;;;;;;;;;;;14.77;82.11;100055.22;5051897;28;1408;-61
2021/08/15 01:18:47;;;;;;;;;;;;;;;14.76;82.05;100059.19;5052007;28;930;-60
2021/08/15 01:21:13;;;;;;;;;;;;;;;14.74;82.11;100050.47;5051999;28;1913;-61
2021/08/15 01:23:41;;;;;;;;;;;;;;;14.76;82.10;100048.06;5052028;28;814;-61
2021/08/15 01:26:11;;;;;;;;;;;;;;;14.72;81.95;100047.34;5051901;28;881;-61
2021/08/15 01:28:38;;;;;;;;;;;;;;;14.68;81.99;100052.97;5052198;28;866;-61
2021/08/15 01:31:06;;;;;;;;;;;;;;;14.62;82.17;100046.34;5052247;28;877;-60
2021/08/15 01:33:34;;;;;;;;;;;;;;;14.58;82.51;100038.03;5051999;28;873;-61
2021/08/15 01:36:01;;;;;;;;;;;;;;;14.58;82.57;100043.59;5052075;28;830;-60
2021/08/15 01:38:33;;;;;;;;;;;;;;;14.55;82.46;100043.63;5051861;28;877;-61
2021/08/15 01:41:00;;;;;;;;;;;;;;;14.53;82.27;100046.84;5051591;28;1957;-61
2021/08/15 01:43:26;;;;;;;;;;;;;;;14.48;82.42;100042.53;5051735;28;874;-60
2021/08/15 01:45:53;;;;;;;;;;;;;;;14.49;82.66;100049.69;5051716;28;928;-61
2021/08/15 01:48:20;;;;;;;;;;;;;;;14.47;82.41;100043.75;5050404;28;1459;-60
2021/08/15 01:50:47;;;;;;;;;;;;;;;14.48;82.36;100033.41;5051662;28;830;-61
2021/08/15 01:53:16;;;;;;;;;;;;;;;14.49;82.61;100033.00;5051623;28;870;-61
2021/08/15 01:55:42;;;;;;;;;;;;;;;14.52;82.41;100031.34;5051495;28;810;-60
2021/08/15 01:58:10;;;;;;;;;;;;;;;14.49;82.18;100033.00;5051739;28;818;-61
2021/08/15 02:00:37;;;;;;;;;;;;;;;14.52;82.53;100036.16;5051404;28;1885;-61
2021/08/15 02:03:03;;;;;;;;;;;;;;;14.59;82.39;100036.03;5051489;28;877;-61
2021/08/15 02:05:30;;;;;;;;;;;;;;;14.63;82.10;100034.75;5051410;28;920;-61
2021/08/15 02:07:57;;;;;;;;;;;;;;;14.60;81.90;100034.84;5051406;28;905;-60
2021/08/15 02:10:24;;;;;;;;;;;;;;;14.60;82.19;100035.63;5051480;28;873;-61
2021/08/15 02:12:51;;;;;;;;;;;;;;;14.62;81.99;100026.88;5055133;28;878;-60
2021/08/15 02:15:19;;;;;;;;;;;;;;;14.64;81.78;100030.00;5055313;28;1192;-61
2021/08/15 02:17:46;;;;;;;;;;;;;;;14.60;81.78;100029.28;5055530;28;846;-61
2021/08/15 02:20:14;;;;;;;;;;;;;;;14.58;81.73;100038.03;5055446;28;1975;-61
2021/08/15 02:22:41;;;;;;;;;;;;;;;14.62;82.08;100032.44;5055450;28;885;-61
2021/08/15 02:25:09;;;;;;;;;;;;;;;14.63;81.81;100033.97;5055322;28;826;-61
2021/08/15 02:27:37;;;;;;;;;;;;;;;14.60;81.89;100032.06;5055292;28;1070;-60
2021/08/15 02:30:04;;;;;;;;;;;;;;;14.59;81.80;100034.03;5055286;28;853;-61
2021/08/15 02:32:30;;;;;;;;;;;;;;;14.60;81.90;100034.84;5055250;28;854;-60
2021/08/15 02:34:57;;;;;;;;;;;;;;;14.59;81.32;100033.25;5055236;28;877;-61
2021/08/15 02:37:23;;;;;;;;;;;;;;;14.49;81.47;100038.56;5055042;28;841;-61
2021/08/15 02:39:51;;;;;;;;;;;;;;;14.46;81.81;100030.28;5055054;28;1885;-61
2021/08/15 02:42:18;;;;;;;;;;;;;;;14.43;81.51;100029.13;5055070;28;834;-60
2021/08/15 02:44:45;;;;;;;;;;;;;;;14.39;81.84;100031.19;5054980;28;882;-60
2021/08/15 02:47:12;;;;;;;;;;;;;;;14.40;82.17;100037.53;5053696;28;886;-61
2021/08/15 02:49:40;;;;;;;;;;;;;;;14.43;82.00;100043.03;5054945;28;901;-61
2021/08/15 02:52:07;;;;;;;;;;;;;;;14.37;81.84;100035.59;5054981;28;917;-61
2021/08/15 02:54:34;;;;;;;;;;;;;;;14.33;82.12;100038.44;5054730;28;815;-61
2021/08/15 02:57:00;;;;;;;;;;;;;;;14.25;82.17;100040.56;5054858;28;869;-61
2021/08/15 02:59:27;;;;;;;;;;;;;;;14.25;82.80;100036.97;5054606;28;1945;-61
2021/08/15 03:01:54;;;;;;;;;;;;;;;14.26;83.06;100042.13;5054657;28;842;-60
2021/08/15 03:04:20;;;;;;;;;;;;;;;14.29;83.05;100046.03;5054598;28;881;-61
2021/08/15 03:06:47;;;;;;;;;;;;;;;14.29;83.24;100044.06;5054581;28;904;-61
2021/08/15 03:09:14;;;;;;;;;;;;;;;14.27;83.42;100046.50;5054827;28;827;-61
2021/08/15 03:11:41;;;;;;;;;;;;;;;14.28;83.34;100045.25;5054797;28;850;-61
2021/08/15 03:14:07;;;;;;;;;;;;;;;14.27;83.46;100045.69;5054450;28;945;-61
2021/08/15 03:16:34;;;;;;;;;;;;;;;14.25;83.34;100048.09;5054245;28;1283;-61
2021/08/15 03:18:59;;;;;;;;;;;;;;;14.22;83.56;100049.72;5054577;28;882;-61
2021/08/15 03:21:29;;;;;;;;;;;;;;;14.23;83.70;100045.75;5054490;28;1918;-61
2021/08/15 03:23:57;;;;;;;;;;;;;;;14.20;83.55;100046.59;5053870;28;850;-60
2021/08/15 03:26:23;;;;;;;;;;;;;;;14.16;83.78;100043.06;5054297;28;822;-61
2021/08/15 03:28:50;;;;;;;;;;;;;;;14.17;83.75;100050.22;5054127;28;826;-61
2021/08/15 03:31:16;;;;;;;;;;;;;;;14.18;83.98;100043.44;5054171;28;810;-61
2021/08/15 03:33:42;;;;;;;;;;;;;;;14.18;83.65;100054.56;5054317;28;810;-60
2021/08/15 03:36:09;;;;;;;;;;;;;;;14.16;83.86;100047.84;5054128;28;913;-61
2021/08/15 03:38:36;;;;;;;;;;;;;;;14.14;84.03;100048.25;5054022;28;917;-61
2021/08/15 03:41:03;;;;;;;;;;;;;;;14.17;83.84;100055.00;5053783;28;1906;-61
2021/08/15 03:43:30;;;;;;;;;;;;;;;14.18;83.97;100057.34;5053919;28;806;-61
2021/08/15 03:45:56;;;;;;;;;;;;;;;14.21;84.18;100056.50;5053920;28;822;-61
2021/08/15 03:48:23;;;;;;;;;;;;;;;14.26;83.83;100058.03;5053976;28;821;-61
2021/08/15 03:50:50;;;;;;;;;;;;;;;14.33;83.81;100054.34;5053788;28;872;-61
2021/08/15 03:53:17;;;;;;;;;;;;;;;14.38;83.41;100059.41;5053771;28;931;-61
2021/08/15 03:55:43;;;;;;;;;;;;;;;14.46;83.41;100058.84;5053660;28;794;-61
2021/08/15 03:58:10;;;;;;;;;;;;;;;14.53;82.96;100054.38;5052528;28;882;-61
2021/08/15 04:00:40;;;;;;;;;;;;;;;14.63;82.60;100056.25;5053849;28;1971;-61
2021/08/15 04:03:11;;;;;;;;;;;;;;;14.75;82.30;100047.28;5053531;28;798;-61
2021/08/15 04:05:40;;;;;;;;;;;;;;;14.86;81.76;100053.44;5053607;28;818;-61
2021/08/15 04:08:07;;;;;;;;;;;;;;;14.97;81.05;100046.88;5053434;28;826;-61
2021/08/15 04:10:34;;;;;;;;;;;;;;;15.08;80.69;100053.03;5053452;28;858;-61
2021/08/15 04:13:00;;;;;;;;;;;;;;;15.21;80.20;100053.97;5053368;28;889;-61
2021/08/15 04:15:27;;;;;;;;;;;;;;;15.29;79.80;100047.03;5053354;28;1343;-61
2021/08/15 04:17:54;;;;;;;;;;;;;;;15.36;79.41;100045.31;5053321;28;881;-61
2021/08/15 04:20:21;;;;;;;;;;;;;;;15.44;79.05;100049.53;5053080;28;2042;-61
2021/08/15 04:22:48;;;;;;;;;;;;;;;15.50;78.87;100053.38;5052971;28;873;-61
2021/08/15 04:25:15;;;;;;;;;;;;;;;15.59;78.14;100045.22;5053138;28;838;-61
2021/08/15 04:27:42;;;;;;;;;;;;;;;15.68;77.85;100045.44;5053101;28;873;-60
2021/08/15 04:30:09;;;;;;;;;;;;;;;15.78;77.23;100045.66;5052991;28;873;-61
2021/08/15 04:32:34;;;;;;;;;;;;;;;15.93;76.72;100046.88;5052972;28;1090;-61
2021/08/15 04:35:01;;;;;;;;;;;;;;;16.12;76.44;100048.03;5052209;28;822;-61
2021/08/15 04:37:28;;;;;;;;;;;;;;;16.29;75.55;100040.47;5052882;28;885;-61
2021/08/15 04:39:54;;;;;;;;;;;;;;;16.46;75.34;100044.03;5053040;28;1985;-61
2021/08/15 04:42:21;;;;;;;;;;;;;;;16.64;74.38;100040.78;5052887;28;846;-61
2021/08/15 04:44:48;;;;;;;;;;;;;;;16.81;73.30;100052.72;5052725;28;861;-61
2021/08/15 04:47:14;;;;;;;;;;;;;;;16.99;72.47;100047.47;5052731;28;814;-61
2021/08/15 04:49:41;;;;;;;;;;;;;;;17.18;72.04;100051.34;5052843;28;826;-61
2021/08/15 04:52:07;;;;;;;;;;;;;;;17.39;71.21;100046.34;5052459;28;868;-61
2021/08/15 04:54:34;;;;;;;;;;;;;;;17.57;70.50;100046.63;5052621;28;822;-61
2021/08/15 04:57:01;;;;;;;;;;;;;;;17.66;69.81;100046.72;5052519;28;830;-61
2021/08/15 04:59:28;;;;;;;;;;;;;;;17.74;69.48;100042.50;5052413;28;1886;-61
2021/08/15 05:01:55;;;;;;;;;;;;;;;17.89;69.36;100042.88;5052401;28;853;-61
2021/08/15 05:04:21;;;;;;;;;;;;;;;18.06;68.23;100043.53;5052480;28;869;-61
2021/08/15 05:06:48;;;;;;;;;;;;;;;18.25;67.76;100038.16;5052323;28;826;-61
2021/08/15 05:17:36;;;;;;;;;;;;;;;19.73;63.48;100043.72;5052326;28;635;-61
2021/08/15 05:20:01;;;;;;;;;;;;;;;20.16;62.36;100050.47;5052064;28;1907;-61
2021/08/15 05:22:28;;;;;;;;;;;;;;;20.51;61.30;100047.41;5052116;28;878;-61
2021/08/15 05:24:56;;;;;;;;;;;;;;;20.77;60.37;100045.13;5051912;28;1159;-61
2021/08/15 05:27:23;;;;;;;;;;;;;;;21.26;59.45;100053.88;5052196;28;892;-61
2021/08/15 05:29:49;;;;;;;;;;;;;;;21.53;58.06;100053.84;5051884;28;854;-61
2021/08/15 05:32:15;;;;;;;;;;;;;;;21.69;57.93;100054.75;5052036;28;830;-61
2021/08/15 05:34:42;;;;;;;;;;;;;;;21.83;58.08;100059.72;5051910;28;842;-60
2021/08/15 05:37:09;;;;;;;;;;;;;;;22.40;56.60;100050.53;5051826;28;970;-61
2021/08/15 05:39:35;;;;;;;;;;;;;;;23.27;54.51;100053.34;5051721;28;1991;-61
2021/08/15 05:42:02;;;;;;;;;;;;;;;24.11;52.09;100051.19;5051849;28;861;-61
2021/08/15 05:44:28;;;;;;;;;;;;;;;24.76;50.42;100056.69;5051616;28;872;-62
2021/08/15 05:46:55;;;;;;;;;;;;;;;25.25;48.50;100048.53;5051877;28;897;-62
2021/08/15 05:49:22;;;;;;;;;;;;;;;25.40;47.86;100048.41;5051768;28;810;-62
2021/08/15 05:51:48;;;;;;;;;;;;;;;25.35;47.99;100041.44;5051562;28;924;-62
2021/08/15 05:54:15;;;;;;;;;;;;;;;25.55;47.47;100046.25;5051657;28;865;-61
2021/08/15 05:56:42;;;;;;;;;;;;;;;26.16;46.43;100047.22;5051522;28;889;-62
2021/08/15 05:59:08;;;;;;;;;;;;;;;26.93;44.80;100053.03;5051546;28;839;-62
2021/08/15 06:01:34;;;;;;;;;;;;;;;27.76;43.56;100046.00;5051491;28;1964;-62
2021/08/15 06:04:01;;;;;;;;;;;;;;;28.70;40.67;100037.03;5051531;28;865;-62
2021/08/15 06:06:28;;;;;;;;;;;;;;;29.44;39.63;100043.09;5051408;28;862;-62
2021/08/15 06:08:55;;;;;;;;;;;;;;;30.22;38.42;100035.94;5051475;28;873;-62
2021/08/15 06:11:22;;;;;;;;;;;;;;;30.98;36.90;100041.03;5051486;28;826;-62
2021/08/15 06:13:50;;;;;;;;;;;;;;;31.37;35.31;100043.31;5049917;28;1452;-62
2021/08/15 06:16:17;;;;;;;;;;;;;;;31.77;34.56;100049.16;5051171;28;1242;-61
2021/08/15 06:18:44;;;;;;;;;;;;;;;32.09;34.45;100040.59;5051392;28;901;-61
2021/08/15 06:21:11;;;;;;;;;;;;;;;32.62;33.37;100034.09;5051288;28;1906;-61
2021/08/15 06:23:38;;;;;;;;;;;;;;;33.03;32.87;100037.66;5051313;28;809;-61
2021/08/15 06:26:05;;;;;;;;;;;;;;;33.23;31.88;100039.06;5050051;28;1159;-61
2021/08/15 06:28:32;;;;;;;;;;;;;;;33.05;31.78;100040.72;5051108;28;933;-61
2021/08/15 06:30:59;;;;;;;;;;;;;;;32.66;31.60;100031.69;5051432;28;786;-61
2021/08/15 06:33:26;;;;;;;;;;;;;;;32.88;31.93;100039.03;5051198;28;838;-62
2021/08/15 06:35:52;;;;;;;;;;;;;;;33.60;31.01;100034.28;5051233;28;857;-62
2021/08/15 06:38:19;;;;;;;;;;;;;;;33.94;29.95;100039.91;5051241;28;963;-62
2021/08/15 06:40:46;;;;;;;;;;;;;;;34.16;27.15;100041.44;5051119;28;1886;-62
2021/08/15 06:43:12;;;;;;;;;;;;;;;34.01;25.36;100042.06;5051019;28;873;-62
2021/08/15 06:45:39;;;;;;;;;;;;;;;33.90;24.24;100046.00;5051169;28;869;-62
2021/08/15 06:48:06;;;;;;;;;;;;;;;33.63;24.24;100039.66;5051101;28;795;-62
2021/08/15 06:50:32;;;;;;;;;;;;;;;33.64;24.01;100043.28;5051079;28;850;-62
2021/08/15 06:53:00;;;;;;;;;;;;;;;33.67;23.94;100039.31;5051139;28;822;-62
2021/08/15 06:55:26;;;;;;;;;;;;;;;33.88;23.38;100039.28;5051059;28;862;-62
2021/08/15 06:57:53;;;;;;;;;;;;;;;33.88;23.65;100034.31;5052872;28;965;-62
2021/08/15 07:00:20;;;;;;;;;;;;;;;33.88;23.57;100048.66;5054708;28;1940;-62
2021/08/15 07:02:48;;;;;;;;;;;;;;;33.96;23.48;100045.84;5054768;28;806;-62
2021/08/15 07:05:16;;;;;;;;;;;;;;;34.07;22.97;100044.78;5054649;28;883;-62
2021/08/15 07:07:43;;;;;;;;;;;;;;;34.12;23.01;100044.66;5054763;28;1024;-62
2021/08/15 07:10:09;;;;;;;;;;;;;;;34.41;23.54;100046.75;5054605;28;900;-62
2021/08/15 07:12:36;;;;;;;;;;;;;;;35.07;22.95;100045.34;5054434;28;814;-62
2021/08/15 07:15:03;;;;;;;;;;;;;;;35.42;22.73;100049.50;5054501;28;1319;-62
2021/08/15 07:17:30;;;;;;;;;;;;;;;35.24;22.00;100045.63;5054520;28;837;-62
2021/08/15 07:19:56;;;;;;;;;;;;;;;34.76;22.08;100037.41;5054413;28;2042;-62
2021/08/15 07:22:23;;;;;;;;;;;;;;;34.75;22.50;100043.69;5054342;28;801;-62
2021/08/15 07:24:48;;;;;;;;;;;;;;;35.22;22.15;100047.53;5054404;28;825;-62
2021/08/15 07:27:15;;;;;;;;;;;;;;;35.45;22.13;100041.81;5054486;28;810;-62
2021/08/15 07:29:41;;;;;;;;;;;;;;;35.36;22.62;100046.78;5054278;28;806;-62
2021/08/15 07:32:08;;;;;;;;;;;;;;;35.39;22.24;100044.88;5054461;28;884;-62
2021/08/15 07:34:35;;;;;;;;;;;;;;;35.55;22.10;100048.56;5054256;28;814;-62
2021/08/15 07:37:02;;;;;;;;;;;;;;;35.48;21.70;100052.16;5054040;28;897;-62
2021/08/15 07:39:28;;;;;;;;;;;;;;;35.04;21.12;100047.25;5054100;28;888;-62
2021/08/15 07:41:55;;;;;;;;;;;;;;;35.45;21.63;100047.56;5053910;28;1952;-62
2021/08/15 07:44:23;;;;;;;;;;;;;;;35.73;21.93;100049.53;5053901;28;878;-62
2021/08/15 07:46:49;;;;;;;;;;;;;;;35.63;21.91;100046.44;5053881;28;902;-62
2021/08/15 07:49:16;;;;;;;;;;;;;;;35.83;21.37;100050.50;5053979;28;814;-62
2021/08/15 07:51:43;;;;;;;;;;;;;;;35.84;21.08;100057.00;5053804;28;853;-62
2021/08/15 07:54:10;;;;;;;;;;;;;;;35.47;21.93;100054.28;5054011;28;798;-62
2021/08/15 07:56:37;;;;;;;;;;;;;;;35.53;21.93;100060.59;5054041;28;877;-62
2021/08/15 07:59:04;;;;;;;;;;;;;;;35.01;21.81;100047.63;5053689;28;852;-63
2021/08/15 08:01:30;;;;;;;;;;;;;;;34.72;22.50;100047.72;5053680;28;1949;-63
2021/08/15 08:03:57;;;;;;;;;;;;;;;34.81;22.51;100034.94;5053673;28;858;-63
2021/08/15 08:06:24;;;;;;;;;;;;;;;34.61;22.74;100042.25;5053721;28;850;-62
2021/08/15 08:08:50;;;;;;;;;;;;;;;34.70;22.88;100041.78;5052532;28;881;-62
2021/08/15 08:11:17;;;;;;;;;;;;;;;34.42;22.77;100046.19;5053731;28;853;-62
2021/08/15 08:13:47;;;;;;;;;;;;;;;34.22;22.73;100042.03;5053445;28;898;-62
2021/08/15 08:16:14;;;;;;;;;;;;;;;34.00;23.02;100023.34;5053276;28;1379;-62
2021/08/15 08:18:41;;;;;;;;;;;;;;;34.30;22.89;100036.38;5053311;28;810;-62
2021/08/15 08:21:08;;;;;;;;;;;;;;;34.28;22.95;100025.44;5053346;28;1910;-62
2021/08/15 08:23:35;;;;;;;;;;;;;;;34.30;22.51;100019.16;5053265;28;818;-62
2021/08/15 08:26:01;;;;;;;;;;;;;;;34.50;22.57;100009.72;5053182;28;1026;-63
2021/08/15 08:28:28;;;;;;;;;;;;;;;34.68;22.99;100012.88;5053064;28;867;-62
2021/08/15 08:30:55;;;;;;;;;;;;;;;34.93;22.64;100008.19;5053105;28;1053;-62
2021/08/15 08:33:23;;;;;;;;;;;;;;;34.92;22.58;100011.63;5053140;28;862;-63
2021/08/15 08:35:50;;;;;;;;;;;;;;;35.17;21.90;100012.66;5053085;28;889;-62
2021/08/15 08:38:15;;;;;;;;;;;;;;;35.44;22.06;100005.78;5052843;28;933;-63
2021/08/15 08:40:42;;;;;;;;;;;;;;;35.30;21.97;100016.72;5052964;28;1893;-62
2021/08/15 08:43:09;;;;;;;;;;;;;;;35.05;20.94;100004.94;5052855;28;822;-62
2021/08/15 08:45:39;;;;;;;;;;;;;;;34.80;21.01;99998.94;5051829;28;1325;-62
2021/08/15 08:48:05;;;;;;;;;;;;;;;34.78;22.02;99996.63;5052634;28;850;-62
2021/08/15 08:50:32;;;;;;;;;;;;;;;34.80;22.19;100004.69;5052798;28;865;-62
2021/08/15 08:53:00;;;;;;;;;;;;;;;35.19;21.88;100000.63;5052549;28;885;-62
2021/08/15 08:55:26;;;;;;;;;;;;;;;35.24;21.40;99999.66;5052689;28;838;-64
2021/08/15 08:57:53;;;;;;;;;;;;;;;34.51;22.41;99994.00;5052649;28;833;-62
2021/08/15 09:00:20;;;;;;;;;;;;;;;34.45;23.23;99995.53;5052484;28;1894;-62
2021/08/15 09:02:48;;;;;;;;;;;;;;;34.32;23.32;100000.03;5052499;28;798;-61
2021/08/15 09:05:27;;;;;;;;;;;;;;;34.34;22.74;99988.78;5052486;28;904;-62
2021/08/15 09:07:54;;;;;;;;;;;;;;;34.35;22.63;99987.44;5052384;28;825;-63
2021/08/15 09:10:28;;;;;;;;;;;;;;;34.22;23.05;99996.16;5052307;28;911;-61
2021/08/15 09:12:59;;;;;;;;;;;;;;;33.81;23.46;99989.19;5052346;28;881;-62
2021/08/15 09:15:26;;;;;;;;;;;;;;;33.73;23.69;99983.38;5052191;28;1344;-62
2021/08/15 09:17:54;;;;;;;;;;;;;;;33.70;23.06;99987.38;5052247;28;814;-63
2021/08/15 09:20:22;;;;;;;;;;;;;;;33.45;23.25;99984.06;5051698;28;1918;-62
2021/08/15 09:22:49;;;;;;;;;;;;;;;33.35;23.61;99980.94;5052031;28;941;-61
2021/08/15 09:25:22;;;;;;;;;;;;;;;33.04;24.00;99979.06;5052107;28;900;-62
2021/08/15 09:27:56;;;;;;;;;;;;;;;32.93;24.13;99985.84;5051982;28;877;-62
2021/08/15 09:30:23;;;;;;;;;;;;;;;33.14;23.73;99983.03;5052786;28;806;-63
2021/08/15 09:32:52;;;;;;;;;;;;;;;33.29;23.43;99979.56;5052994;28;821;-63
2021/08/15 09:35:29;;;;;;;;;;;;;;;33.21;22.95;99965.16;5051825;28;901;-62
2021/08/15 09:37:57;;;;;;;;;;;;;;;33.24;23.81;99958.28;5051858;28;873;-62
2021/08/15 09:40:41;;;;;;;;;;;;;;;32.95;23.69;99968.88;5051586;28;1947;-61
2021/08/15 09:43:11;;;;;;;;;;;;;;;32.43;24.21;99959.81;5051798;28;799;-62
2021/08/15 09:45:45;;;;;;;;;;;;;;;32.40;24.94;99960.94;5051708;28;810;-61
2021/08/15 09:48:19;;;;;;;;;;;;;;;32.47;24.17;99959.50;5051714;28;830;-61
2021/08/15 09:51:07;;;;;;;;;;;;;;;32.63;23.74;99949.06;5051976;28;799;-61
2021/08/15 09:53:35;;;;;;;;;;;;;;;32.85;23.40;99944.91;5050573;28;846;-62
2021/08/15 09:56:02;;;;;;;;;;;;;;;32.80;23.33;99948.69;5051673;28;818;-62
2021/08/15 09:58:29;;;;;;;;;;;;;;;32.64;22.88;99945.63;5051681;28;865;-62
2021/08/15 10:00:56;;;;;;;;;;;;;;;32.67;22.83;99941.66;5051477;28;1954;-62
2021/08/15 10:03:23;;;;;;;;;;;;;;;32.80;23.74;99935.13;5051559;28;845;-63
2021/08/15 10:05:49;;;;;;;;;;;;;;;32.79;22.74;99936.44;5051460;28;1027;-63
2021/08/15 10:08:15;;;;;;;;;;;;;;;32.40;23.73;99928.72;5051465;28;913;-63
2021/08/15 10:10:42;;;;;;;;;;;;;;;32.50;23.25;99927.72;5051511;28;881;-62
2021/08/15 10:13:08;;;;;;;;;;;;;;;32.54;23.38;99933.13;5051329;28;846;-62
2021/08/15 10:15:37;;;;;;;;;;;;;;;32.52;23.10;99927.94;5051514;28;1358;-63
2021/08/15 10:18:06;;;;;;;;;;;;;;;32.64;23.27;99930.56;5051720;28;822;-62
2021/08/15 10:20:33;;;;;;;;;;;;;;;32.67;22.72;99918.78;5051261;28;1911;-62
2021/08/15 10:23:10;;;;;;;;;;;;;;;32.85;23.35;99919.16;5051393;28;815;-64
2021/08/15 10:25:41;;;;;;;;;;;;;;;33.10;22.74;99911.78;5051378;28;894;-62
2021/08/15 10:28:09;;;;;;;;;;;;;;;33.22;22.46;99911.50;5051407;28;893;-64
2021/08/15 10:30:36;;;;;;;;;;;;;;;33.07;22.33;99912.91;5051544;28;778;-62
2021/08/15 10:33:05;;;;;;;;;;;;;;;33.23;21.92;99904.47;5053745;28;932;-62
2021/08/15 10:35:32;;;;;;;;;;;;;;;33.39;22.07;99908.22;5055287;28;807;-62
2021/08/15 10:38:28;;;;;;;;;;;;;;;33.31;22.04;99899.56;5055235;28;885;-63
2021/08/15 10:40:55;;;;;;;;;;;;;;;33.10;21.78;99896.72;5054979;28;1882;-64
2021/08/15 10:43:22;;;;;;;;;;;;;;;33.08;22.22;99891.53;5055135;28;810;-63
2021/08/15 10:46:07;;;;;;;;;;;;;;;33.19;22.75;99896.22;5055029;28;814;-62
2021/08/15 10:48:50;;;;;;;;;;;;;;;33.50;21.49;99896.44;5054971;28;933;-62
2021/08/15 10:51:35;;;;;;;;;;;;;;;33.31;22.02;99893.84;5054948;28;880;-62
2021/08/15 10:54:02;;;;;;;;;;;;;;;33.46;22.04;99891.09;5055198;28;850;-62
2021/08/15 10:56:47;;;;;;;;;;;;;;;33.73;22.00;99885.16;5055101;28;864;-63
2021/08/15 10:59:34;;;;;;;;;;;;;;;34.08;21.10;99877.91;5054887;28;845;-62
2021/08/15 11:02:19;;;;;;;;;;;;;;;33.96;24.54;99880.34;5054702;28;1886;-63
2021/08/15 11:04:55;;;;;;;;;;;;;;;33.48;27.93;99884.78;5054831;28;920;-62
2021/08/15 11:07:36;;;;;;;;;;;;;;;33.23;28.10;99870.88;5054727;28;825;-63
2021/08/15 11:10:04;;;;;;;;;;;;;;;33.21;28.82;99875.63;5054721;28;814;-62
2021/08/15 11:12:32;;;;;;;;;;;;;;;33.17;28.34;99875.19;5054560;28;857;-63
2021/08/15 11:15:06;;;;;;;;;;;;;;;32.97;28.67;99880.34;5054553;28;1213;-63
2021/08/15 11:17:34;;;;;;;;;;;;;;;32.86;28.09;99878.53;5054476;28;790;-64
2021/08/15 11:20:19;;;;;;;;;;;;;;;32.85;27.85;99867.63;5054477;28;1961;-63
2021/08/15 11:22:45;;;;;;;;;;;;;;;32.97;28.35;99868.91;5054403;28;826;-63
2021/08/15 11:25:11;;;;;;;;;;;;;;;33.27;28.01;99876.25;5054601;28;856;-63
2021/08/15 11:27:40;;;;;;;;;;;;;;;33.44;28.13;99865.09;5054564;28;884;-60
2021/08/15 11:30:12;;;;;;;;;;;;;;;33.24;28.03;99866.66;5054177;28;944;-62
2021/08/15 11:32:39;;;;;;;;;;;;;;;33.06;28.46;99856.19;5054111;28;901;-63
2021/08/15 11:35:07;;;;;;;;;;;;;;;33.05;29.04;99858.28;5054239;28;826;-62
2021/08/15 11:40:43;;;;;;;;;;;;;;;33.18;27.55;99842.38;5054020;28;1889;-63
2021/08/15 11:43:18;;;;;;;;;;;;;;;33.15;28.67;99855.72;5053713;28;803;-62
2021/08/15 11:45:51;;;;;;;;;;;;;;;33.10;28.84;99848.81;5053940;28;1033;-63
2021/08/15 11:48:25;;;;;;;;;;;;;;;33.23;28.92;99844.34;5054185;28;810;-63
2021/08/15 11:50:54;;;;;;;;;;;;;;;33.18;28.73;99854.59;5053828;28;783;-62
2021/08/15 11:53:34;;;;;;;;;;;;;;;33.23;28.71;99850.06;5053738;28;957;-62
2021/08/15 11:56:10;;;;;;;;;;;;;;;33.35;28.80;99836.94;5053805;28;889;-63
2021/08/15 11:58:46;;;;;;;;;;;;;;;33.74;28.17;99838.00;5053649;28;909;-63
2021/08/15 12:01:14;;;;;;;;;;;;;;;33.74;28.27;99838.00;5053609;28;1898;-62
2021/08/15 12:03:41;;;;;;;;;;;;;;;33.73;27.63;99837.22;5053844;28;881;-63
2021/08/15 12:06:09;;;;;;;;;;;;;;;33.87;27.94;99829.28;5053883;28;818;-63
2021/08/15 12:08:39;;;;;;;;;;;;;;;33.86;27.82;99833.47;5053722;28;862;-66
2021/08/15 12:11:23;;;;;;;;;;;;;;;33.67;28.25;99830.13;5053434;28;857;-61
2021/08/15 12:13:49;;;;;;;;;;;;;;;33.84;28.43;99826.75;5054146;28;990;-63
